Time;durP1;ratioP1;P1;durP2;ratioP2;P2;SDS_P1;SDS_P2;PMS_P1;PMS_P2;Temp;Humidity;BMP_temperature;BMP_pressure;BME280_temperature;BME280_humidity;BME280_pressure;Samples;Min_cycle;Max_cycle;Signal;HPM_P1;HPM_P2
2022/08/02 00:00:48;;;;;;;10.98;9.28;;;;;;;17.87;71.49;97196.41;1842484;77;25603;-77
2022/08/02 00:03:15;;;;;;;15.35;10.58;;;;;;;17.80;71.54;97199.34;1842506;77;27379;-77
2022/08/02 00:05:41;;;;;;;11.50;9.63;;;;;;;17.77;71.59;97199.04;1842338;77;25806;-77
2022/08/02 00:08:08;;;;;;;13.68;10.48;;;;;;;17.74;71.56;97191.40;1842274;77;25741;-78
2022/08/02 00:10:34;;;;;;;10.93;9.83;;;;;;;17.65;71.60;97197.86;1842336;77;26037;-77
2022/08/02 00:13:01;;;;;;;13.03;10.75;;;;;;;17.61;71.73;97199.45;1842415;77;25642;-78
2022/08/02 00:15:27;;;;;;;14.80;10.08;;;;;;;17.50;71.73;97189.00;1842414;77;27398;-78
2022/08/02 00:17:54;;;;;;;13.15;10.85;;;;;;;17.46;71.95;97195.23;1842122;77;25682;-78
2022/08/02 00:20:20;;;;;;;11.60;10.48;;;;;;;17.47;72.03;97199.06;1842531;77;25242;-78
2022/08/02 00:22:47;;;;;;;12.75;10.45;;;;;;;17.45;72.12;97195.77;1842405;77;26014;-78
2022/08/02 00:25:13;;;;;;;14.13;11.00;;;;;;;17.35;72.18;97191.59;1842381;77;25609;-78
2022/08/02 00:27:40;;;;;;;12.58;10.80;;;;;;;17.29;72.39;97195.34;1842415;77;27390;-77
2022/08/02 00:30:08;;;;;;;13.13;10.50;;;;;;;17.25;72.46;97195.60;1835255;77;25681;-77
2022/08/02 00:32:34;;;;;;;13.03;10.20;;;;;;;17.23;72.61;97194.49;1829600;78;25762;-77
2022/08/02 00:35:01;;;;;;;12.13;9.70;;;;;;;17.25;72.63;97198.33;1829764;78;26056;-79
2022/08/02 00:37:27;;;;;;;17.05;10.23;;;;;;;17.24;72.64;97198.05;1829738;78;25807;-79
2022/08/02 00:39:54;;;;;;;10.65;9.60;;;;;;;17.23;72.64;97201.31;1829757;78;28021;-77
2022/08/02 00:42:20;;;;;;;10.72;9.73;;;;;;;17.23;72.67;97204.58;1829732;78;25456;-78
2022/08/02 00:44:47;;;;;;;12.33;10.00;;;;;;;17.21;72.67;97204.83;1829732;78;25250;-77
2022/08/02 00:47:13;;;;;;;12.75;10.38;;;;;;;17.19;72.58;97207.53;1829933;78;26586;-78
2022/08/02 00:49:40;;;;;;;13.60;10.08;;;;;;;17.18;72.57;97201.79;1829463;76;25667;-77
2022/08/02 00:52:07;;;;;;;11.68;9.90;;;;;;;17.16;72.52;97203.95;1829776;78;27414;-78
2022/08/02 00:54:33;;;;;;;12.63;10.68;;;;;;;17.15;72.54;97213.20;1829665;78;25891;-77
2022/08/02 00:57:00;;;;;;;10.90;9.68;;;;;;;17.09;72.56;97208.80;1829749;78;25720;-78
2022/08/02 00:59:26;;;;;;;12.28;9.93;;;;;;;17.06;72.61;97212.03;1829806;78;25965;-78
2022/08/02 01:01:54;;;;;;;11.53;9.60;;;;;;;17.03;72.66;97209.81;1829953;78;26141;-78
2022/08/02 01:04:21;;;;;;;15.60;9.23;;;;;;;17.02;72.61;97210.38;1829952;78;28273;-78
2022/08/02 01:06:47;;;;;;;13.15;10.32;;;;;;;16.97;72.64;97210.31;1829819;78;25586;-78
2022/08/02 01:09:13;;;;;;;12.15;9.45;;;;;;;16.91;72.80;97214.88;1829836;78;25680;-78
2022/08/02 01:11:40;;;;;;;12.55;8.75;;;;;;;16.89;72.87;97214.34;1829963;78;26011;-77
2022/08/02 01:14:11;;;;;;;16.62;9.05;;;;;;;16.89;72.82;97214.88;1829902;78;25768;-78
2022/08/02 01:16:46;;;;;;;12.98;9.23;;;;;;;16.88;72.82;97211.33;1827592;78;27420;-77
2022/08/02 01:19:45;;;;;;;11.33;9.53;;;;;;;16.84;72.89;97217.53;1821929;78;25928;-78
2022/08/02 01:22:31;;;;;;;12.75;10.08;;;;;;;16.82;72.96;97227.86;1725828;81;25762;-78
2022/08/02 01:25:16;;;;;;;11.12;10.05;;;;;;;16.77;73.15;97231.38;1728911;82;26979;-78
2022/08/02 01:28:08;;;;;;;10.88;9.73;;;;;;;16.76;73.33;97232.45;1725129;82;25863;-78
2022/08/02 01:30:35;;;;;;;;;;;;;;;16.74;73.48;97235.96;1737064;81;27490;-77
2022/08/02 01:33:04;;;;;;;12.30;9.55;;;;;;;16.69;73.95;97233.70;1703745;84;25719;-77
2022/08/02 01:35:41;;;;;;;14.25;10.08;;;;;;;16.68;73.82;97235.59;1726140;81;25462;-78
2022/08/02 01:38:12;;;;;;;15.28;10.18;;;;;;;16.68;73.89;97228.78;1723353;83;25995;-78
2022/08/02 01:40:43;;;;;;;12.43;10.38;;;;;;;16.69;73.96;97234.52;1695731;84;25284;-78
2022/08/02 01:43:12;;;;;;;11.95;10.68;;;;;;;16.71;74.00;97234.27;1701477;83;26753;-78
2022/08/02 01:45:40;;;;;;;10.93;9.83;;;;;;;16.70;74.06;97237.53;1701591;83;25875;-78
2022/08/02 01:48:09;;;;;;;13.65;10.05;;;;;;;16.72;74.10;97231.84;1701555;84;25888;-78
2022/08/02 01:50:37;;;;;;;16.05;10.45;;;;;;;16.72;74.17;97232.66;1701489;83;26074;-77
2022/08/02 01:53:10;;;;;;;12.68;10.40;;;;;;;16.74;74.16;97235.96;1701496;83;25721;-78
2022/08/02 01:55:50;;;;;;;13.22;10.60;;;;;;;16.76;74.20;97235.17;1701385;82;27412;-78
2022/08/02 01:58:19;;;;;;;13.20;10.95;;;;;;;16.76;74.27;97229.72;1697447;84;25896;-79
2022/08/02 02:00:47;;;;;;;12.03;10.78;;;;;;;16.77;74.30;97231.38;1697707;83;25778;-79
2022/08/02 02:03:20;;;;;;;11.75;10.65;;;;;;;16.75;74.37;97225.34;1697708;84;25983;-78
2022/08/02 02:05:53;;;;;;;15.15;10.65;;;;;;;16.76;74.41;97226.99;1697806;84;25536;-77
2022/08/02 02:08:28;;;;;;;14.15;10.35;;;;;;;16.77;74.47;97230.01;1697508;84;27985;-77
2022/08/02 02:10:56;;;;;;;13.32;10.30;;;;;;;16.77;74.56;97225.92;1591693;88;25501;-78
2022/08/02 02:13:25;;;;;;;15.88;9.83;;;;;;;16.77;74.67;97225.92;1572156;90;26038;-78
2022/08/02 02:15:53;;;;;;;11.12;9.93;;;;;;;16.77;74.70;97230.55;1546723;92;26676;-78
2022/08/02 02:18:28;;;;;;;11.78;10.60;;;;;;;16.78;74.71;97227.57;1575411;88;25876;-78
2022/08/02 02:20:57;;;;;;;14.38;10.78;;;;;;;16.80;74.75;97230.84;1665910;86;27572;-79
2022/08/02 02:23:23;;;;;;;14.95;10.85;;;;;;;16.79;74.94;97232.45;1651908;85;25945;-78
2022/08/02 02:25:51;;;;;;;11.97;10.10;;;;;;;16.79;75.00;97234.64;1665910;86;26856;-79
2022/08/02 02:28:29;;;;;;;11.33;10.28;;;;;;;16.81;75.01;97231.12;1651910;85;26588;-78
2022/08/02 02:31:06;;;;;;;14.03;10.15;;;;;;;16.82;75.01;97232.77;1659200;86;25880;-78
2022/08/02 02:33:37;;;;;;;13.30;10.60;;;;;;;16.83;75.08;97232.23;1589000;90;27740;-78
2022/08/02 02:36:04;;;;;;;14.95;10.35;;;;;;;16.83;75.12;97233.06;1611418;88;25725;-78
2022/08/02 02:38:32;;;;;;;15.28;11.22;;;;;;;16.84;75.22;97236.61;1611203;89;25801;-79
2022/08/02 02:41:02;;;;;;;13.55;11.18;;;;;;;16.83;75.22;97230.34;1611178;89;26688;-77
2022/08/02 02:43:31;;;;;;;15.23;11.05;;;;;;;16.83;75.21;97235.78;1610957;89;26129;-77
2022/08/02 02:45:59;;;;;;;14.35;10.82;;;;;;;16.84;75.20;97233.89;1611268;89;27514;-77
2022/08/02 02:48:28;;;;;;;13.38;11.08;;;;;;;16.85;75.28;97240.98;1611177;89;25841;-78
2022/08/02 02:50:56;;;;;;;13.35;10.72;;;;;;;16.82;75.34;97236.03;1611231;89;25781;-78
2022/08/02 02:53:24;;;;;;;14.58;11.48;;;;;;;16.80;75.37;97237.66;1611135;87;26063;-78
2022/08/02 02:55:52;;;;;;;11.95;10.70;;;;;;;16.82;75.42;97241.49;1611218;89;25776;-78
2022/08/02 02:58:19;;;;;;;12.63;10.60;;;;;;;16.82;75.43;97242.31;1610836;89;27348;-78
2022/08/02 03:03:33;;;;;;;12.07;10.78;;;;;;;16.82;75.62;97242.31;1712733;83;25807;-77
2022/08/02 03:05:59;;;;;;;14.98;12.00;;;;;;;16.83;75.66;97241.23;1712816;83;26029;-78
2022/08/02 03:08:26;;;;;;;11.22;10.13;;;;;;;16.82;75.80;97241.49;1713072;82;25770;-77
2022/08/02 03:10:53;;;;;;;14.95;11.35;;;;;;;16.81;75.87;97243.93;1712766;82;28089;-77
2022/08/02 03:13:20;;;;;;;14.03;10.93;;;;;;;16.81;75.98;97240.66;1712797;83;25525;-77
2022/08/02 03:15:48;;;;;;;15.18;11.25;;;;;;;16.82;76.03;97238.23;1713000;83;25788;-78
2022/08/02 03:18:37;;;;;;;15.15;11.40;;;;;;;16.85;76.08;97239.09;1712884;83;25987;-77
2022/08/02 03:23:40;;;;;;;14.95;12.07;;;;;;;16.83;76.37;97237.15;1644621;87;27405;-77
2022/08/02 03:26:08;;;;;;;13.83;11.70;;;;;;;16.83;76.40;97240.41;1644496;87;26043;-78
2022/08/02 03:28:35;;;;;;;15.48;11.30;;;;;;;16.85;76.34;97238.27;1644689;87;26036;-78
2022/08/02 03:31:02;;;;;;;13.10;11.78;;;;;;;16.87;76.47;97241.56;1647035;86;26070;-77
2022/08/02 03:33:29;;;;;;;17.17;12.28;;;;;;;16.87;76.55;97240.20;1648315;87;26422;-78
2022/08/02 03:36:00;;;;;;;13.13;11.40;;;;;;;16.88;76.50;97240.48;1648341;87;27473;-78
2022/08/02 03:38:29;;;;;;;16.67;12.15;;;;;;;16.88;76.66;97229.58;1648267;87;25690;-78
2022/08/02 03:40:56;;;;;;;13.53;12.13;;;;;;;16.87;76.63;97239.66;1648422;87;25827;-77
2022/08/02 03:43:24;;;;;;;13.90;11.83;;;;;;;16.90;76.62;97243.78;1648384;87;26001;-77
2022/08/02 03:45:52;;;;;;;13.15;11.83;;;;;;;16.92;76.69;97241.60;1648094;87;25954;-77
2022/08/02 03:48:19;;;;;;;11.95;10.78;;;;;;;16.93;76.68;97248.16;1648261;87;27380;-76
2022/08/02 03:50:47;;;;;;;12.98;11.08;;;;;;;16.95;76.71;97251.18;1648219;87;25719;-77
2022/08/02 03:53:16;;;;;;;16.35;12.65;;;;;;;16.98;76.70;97251.50;1648321;87;25791;-77
2022/08/02 03:55:44;;;;;;;16.50;11.93;;;;;;;17.01;76.66;97253.72;1648134;87;44208;-77
2022/08/02 03:58:21;;;;;;;15.18;11.93;;;;;;;17.05;76.73;97249.92;1648035;87;25943;-76
2022/08/02 04:00:48;;;;;;;16.35;12.60;;;;;;;17.06;76.85;97251.03;1608899;87;28214;-77
2022/08/02 04:03:15;;;;;;;13.43;12.03;;;;;;;17.08;76.87;97250.78;1608982;89;25826;-77
2022/08/02 04:05:42;;;;;;;14.47;12.05;;;;;;;17.11;76.81;97255.73;1608909;89;25804;-79
2022/08/02 04:08:09;;;;;;;13.20;12.00;;;;;;;17.15;76.82;97265.03;1609159;89;26559;-76
2022/08/02 04:11:29;;;;;;;12.40;11.10;;;;;;;17.16;77.02;97261.22;1609112;89;25813;-77
2022/08/02 04:13:04;;;;;;;12.47;11.30;;;;;;;17.15;77.00;97265.03;1609082;89;28154;-77
2022/08/02 04:15:30;;;;;;;14.58;11.85;;;;;;;17.20;76.93;97273.28;1609044;89;25847;-77
2022/08/02 04:18:01;;;;;;;13.80;11.60;;;;;;;17.23;76.94;97274.14;1634610;86;25814;-76
2022/08/02 04:20:30;;;;;;;13.05;11.73;;;;;;;17.26;76.84;97279.09;1717247;80;26050;-77
2022/08/02 04:23:07;;;;;;;15.75;12.58;;;;;;;17.29;76.88;97275.82;1781524;80;25788;-77
2022/08/02 04:25:35;;;;;;;15.83;12.47;;;;;;;17.33;76.96;97274.23;1743503;81;27449;-78
2022/08/02 04:28:02;;;;;;;13.48;11.70;;;;;;;17.34;77.04;97274.52;1743269;81;25793;-78
2022/08/02 04:30:31;;;;;;;13.10;11.78;;;;;;;17.38;77.02;97275.66;1742661;81;25987;-78
2022/08/02 04:32:58;;;;;;;16.62;12.58;;;;;;;17.40;77.06;97281.66;1741295;81;26223;-78
2022/08/02 04:35:26;;;;;;;17.75;12.90;;;;;;;17.43;77.07;97283.88;1741653;81;25845;-77
2022/08/02 04:37:53;;;;;;;16.82;12.80;;;;;;;17.47;77.07;97284.20;1741576;82;27425;-78
2022/08/02 04:40:20;;;;;;;13.62;12.20;;;;;;;17.48;77.14;97284.48;1741442;82;25702;-78
2022/08/02 04:42:46;;;;;;;17.15;14.43;;;;;;;17.52;77.14;97285.05;1741637;81;25682;-78
2022/08/02 04:45:14;;;;;;;20.57;17.00;;;;;;;17.55;77.09;97287.27;1741740;81;26629;-77
2022/08/02 04:47:40;;;;;;;17.07;15.40;;;;;;;17.59;77.03;97289.78;1741550;81;25670;-77
2022/08/02 04:50:08;;;;;;;15.72;13.90;;;;;;;17.62;77.23;97287.08;1741595;82;27404;-78
2022/08/02 04:52:35;;;;;;;18.45;15.48;;;;;;;17.63;77.23;97291.46;1741554;81;25678;-77
2022/08/02 04:55:02;;;;;;;15.13;13.55;;;;;;;17.67;77.17;97290.41;1741324;81;25817;-78
2022/08/02 05:00:14;;;;;;;16.42;13.62;;;;;;;17.73;77.12;97301.67;1800957;79;25355;-77
2022/08/02 05:02:41;;;;;;;15.93;13.58;;;;;;;17.77;77.10;97305.52;1801059;79;27369;-79
2022/08/02 05:05:07;;;;;;;16.37;14.43;;;;;;;17.79;77.04;97299.25;1801173;79;25740;-78
2022/08/02 05:07:34;;;;;;;18.15;15.38;;;;;;;17.80;77.09;97305.83;1801105;79;25870;-78
2022/08/02 05:10:00;;;;;;;18.95;14.70;;;;;;;17.83;77.07;97306.67;1801015;79;26000;-77
2022/08/02 05:12:27;;;;;;;26.60;17.17;;;;;;;17.87;77.15;97306.42;1801115;79;25609;-78
2022/08/02 05:14:53;;;;;;;24.55;17.57;;;;;;;17.89;77.13;97306.16;1801306;79;27927;-77
2022/08/02 05:17:20;;;;;;;24.47;18.07;;;;;;;17.92;77.10;97305.65;1800999;79;25726;-78
2022/08/02 05:19:46;;;;;;;30.65;20.25;;;;;;;17.95;77.07;97311.97;1801195;79;25797;-78
2022/08/02 05:22:13;;;;;;;25.88;18.70;;;;;;;18.00;77.10;97310.63;1833516;77;26026;-78
2022/08/02 05:24:39;;;;;;;31.33;20.62;;;;;;;18.04;77.07;97309.03;1863033;77;25225;-77
2022/08/02 05:27:06;;;;;;;28.57;20.60;;;;;;;18.07;77.12;97316.70;1863444;77;27453;-78
2022/08/02 05:29:33;;;;;;;33.10;21.07;;;;;;;18.12;77.13;97318.09;1863342;77;25607;-77
2022/08/02 05:31:59;;;;;;;29.63;20.10;;;;;;;18.18;77.18;97318.97;1848813;77;25450;-78
2022/08/02 05:34:26;;;;;;;28.67;19.55;;;;;;;18.20;77.13;97321.73;1844810;77;26163;-77
2022/08/02 05:36:52;;;;;;;30.77;19.23;;;;;;;18.25;77.08;97314.91;1845016;77;25863;-77
2022/08/02 05:39:19;;;;;;;26.42;18.23;;;;;;;18.30;76.98;97314.97;1844738;77;27353;-77
2022/08/02 05:41:45;;;;;;;29.57;18.80;;;;;;;18.36;76.95;97320.73;1844841;77;25650;-78
2022/08/02 05:44:12;;;;;;;33.75;19.25;;;;;;;18.42;76.93;97321.60;1844802;77;25641;-78
2022/08/02 05:46:38;;;;;;;26.87;19.02;;;;;;;18.48;76.95;97325.17;1844922;77;26021;-78
2022/08/02 05:49:05;;;;;;;24.87;17.57;;;;;;;18.54;76.94;97319.49;1844815;77;25661;-78
2022/08/02 05:51:38;;;;;;;28.10;18.90;;;;;;;18.60;76.88;97328.56;1844929;77;28191;-78
2022/08/02 05:54:13;;;;;;;27.75;17.02;;;;;;;18.64;76.75;97325.59;1841272;77;25669;-78
2022/08/02 05:57:16;;;;;;;25.80;17.27;;;;;;;18.69;76.66;97332.47;1773091;80;25728;-78
2022/08/02 06:00:08;;;;;;;23.95;16.48;;;;;;;18.74;76.58;97322.91;1729332;82;26776;-78
2022/08/02 06:02:46;;;;;;;21.65;16.15;;;;;;;18.79;76.71;97329.78;1694695;84;25721;-77
2022/08/02 06:05:18;;;;;;;25.48;16.73;;;;;;;18.86;76.76;97334.45;1692602;84;27348;-78
2022/08/02 06:07:47;;;;;;;18.32;15.55;;;;;;;18.92;76.98;97339.42;1652251;86;25738;-78
2022/08/02 06:10:16;;;;;;;19.90;14.87;;;;;;;18.96;76.99;97339.14;1652424;86;25780;-77
2022/08/02 06:13:08;;;;;;;15.65;12.58;;;;;;;18.99;76.69;97334.52;1633449;87;25991;-78
2022/08/02 06:15:37;;;;;;;13.15;11.85;;;;;;;19.02;76.49;97340.28;1633573;87;25823;-78
2022/08/02 06:18:06;;;;;;;13.03;11.73;;;;;;;19.05;76.28;97337.02;1633403;87;27477;-78
2022/08/02 06:20:34;;;;;;;12.80;11.60;;;;;;;19.08;76.22;97336.47;1633254;87;25941;-78
2022/08/02 06:23:06;;;;;;;11.68;10.50;;;;;;;19.14;76.12;97341.97;1633580;87;25779;-78
2022/08/02 06:25:36;;;;;;;12.10;10.90;;;;;;;19.18;75.93;97343.92;1633685;87;31828;-77
2022/08/02 06:28:05;;;;;;;12.85;11.00;;;;;;;19.22;75.74;97349.11;1633418;87;25749;-78
2022/08/02 06:30:33;;;;;;;11.20;10.13;;;;;;;19.26;75.62;97348.86;1632346;87;27477;-78
2022/08/02 06:33:00;;;;;;;11.55;10.45;;;;;;;19.37;75.57;97352.45;1618724;88;25815;-78
2022/08/02 06:35:34;;;;;;;14.98;11.63;;;;;;;19.49;75.48;97350.33;1618921;88;25872;-78
2022/08/02 06:38:02;;;;;;;12.80;11.43;;;;;;;19.64;75.64;97354.48;1614588;88;26229;-78
2022/08/02 06:40:43;;;;;;;13.22;11.12;;;;;;;19.77;75.49;97358.08;1618665;88;25861;-78
2022/08/02 06:43:24;;;;;;;11.95;10.85;;;;;;;19.87;75.19;97361.92;1582729;89;27408;-78
2022/08/02 06:45:51;;;;;;;12.13;10.85;;;;;;;19.95;75.11;97368.22;1580510;89;25814;-78
2022/08/02 06:48:17;;;;;;;14.93;10.55;;;;;;;20.05;75.05;97364.12;1582653;89;26525;-78
2022/08/02 06:50:44;;;;;;;9.75;8.85;;;;;;;20.15;74.91;97369.63;1583484;88;25925;-78
2022/08/02 06:53:11;;;;;;;11.08;9.43;;;;;;;20.21;74.54;97371.80;1632467;87;25789;-78
2022/08/02 06:55:38;;;;;;;9.53;8.60;;;;;;;20.26;74.29;97379.50;1646175;87;27497;-78
2022/08/02 06:58:04;;;;;;;9.65;8.75;;;;;;;20.31;74.12;97372.63;1646161;87;25821;-78
2022/08/02 07:00:31;;;;;;;11.10;8.83;;;;;;;20.37;73.88;97358.42;1646393;87;26688;-78
2022/08/02 07:02:58;;;;;;;10.50;8.68;;;;;;;20.43;73.63;97356.75;1646397;87;26896;-78
2022/08/02 07:05:24;;;;;;;13.75;8.55;;;;;;;20.50;73.49;97355.13;1693437;82;25764;-78
2022/08/02 07:07:51;;;;;;;9.10;8.20;;;;;;;20.57;73.36;97357.56;1704297;84;27311;-78
2022/08/02 07:10:17;;;;;;;8.88;7.87;;;;;;;20.67;73.26;97354.80;1704018;82;25916;-78
2022/08/02 07:12:44;;;;;;;10.13;7.87;;;;;;;20.71;72.86;97353.16;1704535;84;25438;-78
2022/08/02 07:15:11;;;;;;;9.15;8.25;;;;;;;20.74;72.93;97349.87;1704103;84;26031;-78
2022/08/02 07:17:38;;;;;;;9.13;8.25;;;;;;;20.77;72.80;97351.48;1704296;84;25700;-79
2022/08/02 07:20:06;;;;;;;9.63;8.40;;;;;;;20.84;72.82;97353.95;1704189;82;28294;-78
2022/08/02 07:22:33;;;;;;;7.87;7.08;;;;;;;20.92;72.59;97355.30;1704111;82;25751;-78
2022/08/02 07:25:00;;;;;;;8.53;7.67;;;;;;;20.96;72.37;97353.09;1704205;82;25328;-79
2022/08/02 07:27:28;;;;;;;8.10;7.42;;;;;;;21.01;72.56;97337.97;1703997;82;26901;-79
2022/08/02 07:29:56;;;;;;;9.05;7.33;;;;;;;21.15;72.71;97354.12;1704213;82;25919;-79
2022/08/02 07:32:27;;;;;;;8.08;7.28;;;;;;;21.26;72.54;97349.98;1719343;81;27452;-79
2022/08/02 07:34:55;;;;;;;7.97;7.17;;;;;;;21.32;72.19;97350.25;1725409;83;25813;-79
2022/08/02 07:37:25;;;;;;;7.78;7.08;;;;;;;21.46;71.79;97352.11;1725426;81;25744;-79
2022/08/02 07:39:52;;;;;;;9.68;7.90;;;;;;;21.46;71.79;97352.11;1754522;79;26044;-81
2022/08/02 07:42:18;;;;;;;7.97;7.25;;;;;;;21.53;71.73;97349.04;1796337;79;25670;-79
2022/08/02 07:44:45;;;;;;;7.67;6.40;;;;;;;21.61;71.63;97353.95;1796567;79;27363;-80
2022/08/02 07:47:12;;;;;;;7.25;6.60;;;;;;;21.90;71.62;97354.03;1796396;79;25640;-80
2022/08/02 07:49:38;;;;;;;6.70;6.10;;;;;;;22.37;71.52;97353.42;1796569;79;25712;-80
2022/08/02 07:52:05;;;;;;;6.42;5.80;;;;;;;22.51;70.71;97315.90;1796478;79;26608;-80
2022/08/02 07:54:32;;;;;;;6.45;5.85;;;;;;;23.12;70.16;97348.30;1796579;79;26531;-80
2022/08/02 07:56:59;;;;;;;5.67;5.17;;;;;;;23.50;69.70;97353.89;1796671;79;27978;-79
2022/08/02 07:59:26;;;;;;;5.92;4.85;;;;;;;23.84;69.41;97361.44;1796243;79;25791;-81
2022/08/02 08:01:53;;;;;;;6.37;4.95;;;;;;;24.29;68.15;97353.60;1796572;79;25736;-81
2022/08/02 08:04:19;;;;;;;6.58;5.10;;;;;;;24.69;67.89;97347.39;1796560;79;25967;-80
2022/08/02 08:06:51;;;;;;;6.12;5.25;;;;;;;25.20;66.60;97350.61;1796635;79;25740;-79
2022/08/02 08:09:18;;;;;;;5.43;4.63;;;;;;;25.48;65.86;97348.06;1796810;79;27456;-79
2022/08/02 08:11:44;;;;;;;47.48;17.40;;;;;;;25.87;64.19;97347.27;1796565;79;25710;-80
2022/08/02 08:14:11;;;;;;;13.38;7.17;;;;;;;26.14;62.25;97346.63;1796344;78;25712;-79
2022/08/02 08:16:38;;;;;;;4.83;4.30;;;;;;;26.37;62.73;97345.27;1802274;79;25984;-80
2022/08/02 08:19:04;;;;;;;4.87;4.47;;;;;;;26.70;62.23;97349.95;1802104;79;25747;-78
2022/08/02 08:21:33;;;;;;;4.25;3.95;;;;;;;27.01;61.92;97348.63;1802073;79;27354;-78
2022/08/02 08:23:59;;;;;;;4.97;4.10;;;;;;;27.36;61.62;97343.47;1802127;79;25868;-78
2022/08/02 08:26:26;;;;;;;4.78;4.37;;;;;;;27.70;59.85;97340.55;1802436;79;25698;-79
2022/08/02 08:28:52;;;;;;;4.97;4.00;;;;;;;27.86;59.73;97345.89;1802214;79;26005;-79
2022/08/02 08:31:19;;;;;;;4.92;4.53;;;;;;;28.19;58.89;97341.52;1802094;79;25714;-78
2022/08/02 08:33:45;;;;;;;4.22;3.90;;;;;;;28.49;58.84;97339.72;1802243;79;27559;-78
2022/08/02 08:36:12;;;;;;;5.15;4.25;;;;;;;28.88;58.18;97335.88;1802090;79;25606;-79
2022/08/02 08:38:38;;;;;;;3.98;3.67;;;;;;;29.21;56.19;97331.13;1801902;79;25719;-79
2022/08/02 08:41:05;;;;;;;5.33;4.10;;;;;;;29.26;55.94;97340.64;1802137;79;26012;-79
2022/08/02 08:43:31;;;;;;;5.53;4.08;;;;;;;29.45;55.11;97341.09;1802141;79;25718;-79
2022/08/02 08:45:58;;;;;;;4.87;4.05;;;;;;;29.44;55.14;97345.59;1802102;79;27313;-79
2022/08/02 08:48:25;;;;;;;4.60;4.28;;;;;;;29.41;54.39;97338.73;1802139;79;25714;-79
2022/08/02 08:51:09;;;;;;;6.58;3.98;;;;;;;29.13;53.07;97341.11;1802015;79;25768;-79
2022/08/02 08:53:41;;;;;;;4.17;3.87;;;;;;;29.32;53.93;97333.19;1702992;83;26099;-79
2022/08/02 08:56:08;;;;;;;;;;;;;;;29.69;53.85;97335.72;1664495;86;25859;-78
2022/08/02 08:58:35;;;;;;;3.25;3.05;;;;;;;29.99;51.69;97331.52;1661849;86;27504;-78
2022/08/02 09:01:02;;;;;;;3.77;3.47;;;;;;;30.38;52.27;97330.21;1604899;87;25788;-77
2022/08/02 09:03:29;;;;;;;4.83;2.85;;;;;;;30.75;51.88;97339.55;1642362;87;25786;-79
2022/08/02 09:05:58;;;;;;;6.12;4.05;;;;;;;31.10;51.36;97342.78;1630992;87;26834;-77
2022/08/02 09:08:25;;;;;;;27.48;14.45;;;;;;;31.42;50.50;97343.27;1642204;87;25466;-77
2022/08/02 09:10:51;;;;;;;5.53;4.60;;;;;;;31.72;50.06;97343.07;1659451;86;28074;-77
2022/08/02 09:13:28;;;;;;;4.10;3.77;;;;;;;31.87;47.76;97345.73;1642153;87;25791;-77
2022/08/02 09:16:04;;;;;;;46.30;18.05;;;;;;;31.32;48.59;97353.50;1617985;88;25755;-77
2022/08/02 09:18:38;;;;;;;24.02;10.48;;;;;;;31.32;48.43;97345.12;1646380;87;26845;-77
2022/08/02 09:21:09;;;;;;;5.55;4.90;;;;;;;31.25;47.47;97349.66;1646457;87;25825;-77
2022/08/02 09:23:41;;;;;;;2.80;2.60;;;;;;;31.10;47.52;97349.17;1646714;87;27591;-77
2022/08/02 09:26:15;;;;;;;2.77;2.50;;;;;;;31.26;47.51;97350.72;1646360;87;25867;-76
2022/08/02 09:28:45;;;;;;;4.22;2.55;;;;;;;31.52;47.40;97351.75;1597366;89;25783;-76
2022/08/02 09:31:18;;;;;;;2.90;2.50;;;;;;;31.75;46.31;97344.59;1597253;89;26067;-76
2022/08/02 09:33:55;;;;;;;3.95;2.70;;;;;;;31.91;46.33;97348.84;1545115;92;25854;-76
2022/08/02 09:36:22;;;;;;;2.90;2.70;;;;;;;32.08;45.82;97345.80;1543320;92;27464;-76
2022/08/02 09:39:01;;;;;;;3.02;2.83;;;;;;;31.90;44.59;97356.17;1545047;92;25857;-76
2022/08/02 09:41:31;;;;;;;3.50;3.20;;;;;;;31.30;44.87;97353.02;1545299;92;26116;-78
2022/08/02 09:43:59;;;;;;;5.35;3.35;;;;;;;30.75;44.28;97357.08;1545256;92;26063;-77
2022/08/02 09:46:29;;;;;;;3.33;3.05;;;;;;;30.00;44.82;97352.62;1539794;92;26990;-78
2022/08/02 09:48:59;;;;;;;3.20;2.85;;;;;;;29.51;46.07;97354.22;1525084;94;27518;-78
2022/08/02 09:51:36;;;;;;;4.00;2.95;;;;;;;29.57;45.59;97348.14;1535326;93;26001;-77
2022/08/02 09:54:07;;;;;;;6.22;2.85;;;;;;;29.57;46.67;97348.14;1605412;89;25758;-78
2022/08/02 09:56:50;;;;;;;2.85;2.37;;;;;;;29.78;46.75;97341.79;1551499;91;26148;-77
2022/08/02 09:59:20;;;;;;;2.42;2.27;;;;;;;30.05;46.28;97342.13;1551187;92;26152;-78
2022/08/02 10:01:48;;;;;;;2.47;2.27;;;;;;;30.34;45.13;97336.22;1551255;92;27425;-78
2022/08/02 10:04:20;;;;;;;2.98;2.77;;;;;;;30.24;45.86;97340.23;1551174;92;25764;-78
2022/08/02 10:06:49;;;;;;;2.42;2.33;;;;;;;30.36;45.44;97330.55;1551292;92;26822;-78
2022/08/02 10:09:17;;;;;;;2.40;2.25;;;;;;;30.46;45.18;97332.09;1551391;92;26555;-77
2022/08/02 10:11:44;;;;;;;5.85;2.55;;;;;;;30.39;45.16;97331.27;1551231;91;25804;-78
2022/08/02 10:14:10;;;;;;;3.35;2.20;;;;;;;30.34;44.93;97334.25;1549127;92;27462;-77
2022/08/02 10:16:41;;;;;;;2.62;2.33;;;;;;;30.17;45.19;97333.59;1531928;93;25941;-78
2022/08/02 10:19:08;;;;;;;2.65;2.20;;;;;;;30.10;45.02;97336.91;1584326;90;25858;-77
2022/08/02 10:22:07;;;;;;;2.45;2.25;;;;;;;29.72;43.95;97329.45;1584248;90;26089;-77
2022/08/02 10:24:38;;;;;;;2.40;2.30;;;;;;;29.33;44.85;97332.62;1583900;90;25810;-78
2022/08/02 10:27:12;;;;;;;1.90;1.80;;;;;;;29.08;44.99;97337.72;1584236;90;27408;-78
2022/08/02 10:29:42;;;;;;;2.58;2.02;;;;;;;29.07;45.25;97334.12;1539161;88;25759;-78
2022/08/02 10:32:14;;;;;;;2.20;2.10;;;;;;;29.05;45.49;97327.26;1669880;83;25433;-78
2022/08/02 10:34:57;;;;;;;4.72;1.98;;;;;;;29.27;45.58;97314.48;1708137;83;26376;-79
2022/08/02 10:37:28;;;;;;;2.40;2.20;;;;;;;29.27;45.87;97324.21;1708035;83;25797;-77
2022/08/02 10:39:56;;;;;;;2.70;2.35;;;;;;;29.25;45.90;97326.50;1638836;87;28276;-78
2022/08/02 10:42:48;;;;;;;3.27;2.22;;;;;;;29.08;45.42;97327.98;1610294;89;25823;-78
2022/08/02 10:45:18;;;;;;;3.33;1.75;;;;;;;28.93;45.20;97325.17;1535654;93;34969;-77
2022/08/02 10:48:10;;;;;;;1.80;1.70;;;;;;;28.62;44.98;97329.55;1535742;93;26174;-78
2022/08/02 10:50:51;;;;;;;2.05;1.85;;;;;;;28.53;45.17;97325.98;1477932;96;25972;-78
2022/08/02 10:53:22;;;;;;;2.00;1.90;;;;;;;28.41;45.54;97328.60;1517572;93;27517;-78
2022/08/02 10:55:49;;;;;;;3.55;2.08;;;;;;;28.57;45.51;97328.34;1511021;94;26070;-77
2022/08/02 10:58:20;;;;;;;4.33;1.90;;;;;;;28.49;45.33;97323.63;1493780;94;25880;-79
2022/08/02 11:00:50;;;;;;;3.08;1.87;;;;;;;28.30;45.48;97329.52;1491913;95;25983;-78
2022/08/02 11:03:36;;;;;;;2.67;1.90;;;;;;;28.18;45.47;97332.14;1492083;95;25837;-77
2022/08/02 11:06:08;;;;;;;3.60;2.17;;;;;;;28.04;45.71;97332.83;1491766;95;27461;-77
2022/08/02 11:08:34;;;;;;;;;;;;;;;28.21;46.38;97330.92;1502547;95;25789;-77
2022/08/02 11:11:12;;;;;;;2.30;2.10;;;;;;;28.34;45.59;97328.30;1509178;95;25874;-78
2022/08/02 11:14:08;;;;;;;2.22;2.12;;;;;;;28.31;46.74;97332.54;1520938;93;26004;-78
2022/08/02 11:17:04;;;;;;;2.92;2.08;;;;;;;28.47;46.81;97328.69;1492429;96;25760;-77
2022/08/02 11:19:31;;;;;;;2.55;2.17;;;;;;;28.74;46.48;97324.13;1493856;95;28102;-78
2022/08/02 11:22:15;;;;;;;2.50;2.30;;;;;;;28.99;46.41;97328.81;1512352;92;25797;-77
2022/08/02 11:24:41;;;;;;;3.70;2.40;;;;;;;29.16;45.77;97325.73;1553235;92;25890;-77
2022/08/02 11:27:17;;;;;;;2.67;2.30;;;;;;;29.27;45.78;97329.77;1577082;90;25777;-77
2022/08/02 11:29:47;;;;;;;4.47;2.58;;;;;;;29.43;46.10;97328.67;1611742;87;26989;-77
2022/08/02 11:32:26;;;;;;;2.95;2.65;;;;;;;29.63;45.58;97323.14;1596060;88;27432;-77
2022/08/02 11:34:53;;;;;;;2.17;2.05;;;;;;;29.78;45.52;97323.13;1600310;89;25336;-78
2022/08/02 11:37:38;;;;;;;3.47;2.58;;;;;;;29.85;45.11;97321.19;1602501;89;25852;-77
2022/08/02 11:40:13;;;;;;;4.00;2.85;;;;;;;29.91;45.06;97317.07;1602721;89;26119;-77
2022/08/02 11:42:45;;;;;;;1.90;1.80;;;;;;;30.06;44.87;97317.89;1633340;84;25750;-77
2022/08/02 11:45:15;;;;;;;2.40;2.10;;;;;;;30.20;44.50;97319.79;1685797;85;27284;-77